Flight Track Log - Related Links

Times and Time Zones

All times are in EDT time to prevent confusion due to time zone crossing. See the DLH2700 flight status page for this flight to view local times or setup timezone preferences in your user account.

Time Position Orientation Groundspeed Altitude Reporting Facility
EDT Latitude Longitude Course Direction KTS MPH feet Rate Location/Type
Fri 02:00:00 AM 51.4822 7.0152 39° Northeast  Level Estimated
Fri 02:01:00 AM 51.5463 7.0984 39° Northeast  Level Estimated
Fri 02:02:00 AM 51.6104 7.1819 39° Northeast  Level Estimated
Fri 02:03:00 AM 51.6744 7.2657 39° Northeast  Level Estimated
Fri 02:04:00 AM 51.7384 7.3496 39° Northeast  Level Estimated
Fri 02:05:00 AM 51.8022 7.4338 39° Northeast  Level Estimated
Fri 02:06:00 AM 51.8661 7.5183 39° Northeast  Level Estimated
Fri 02:07:00 AM 51.9299 7.6030 39° Northeast  Level Estimated
Fri 02:08:00 AM 51.9936 7.6879 39° Northeast  Level Estimated
Fri 02:09:00 AM 52.0572 7.7731 39° Northeast  Level Estimated
Fri 02:10:00 AM 52.1208 7.8585 40° Northeast  Level Estimated
Fri 02:11:00 AM 52.1843 7.9442 40° Northeast  Level Estimated
Fri 02:12:00 AM 52.2478 8.0301 40° Northeast  Level Estimated
Fri 02:13:00 AM 52.3112 8.1162 40° Northeast  Level Estimated
Fri 02:14:00 AM 52.3745 8.2026 40° Northeast  Level Estimated
Fri 02:15:00 AM 52.4378 8.2893 40° Northeast  Level Estimated
Fri 02:16:00 AM 52.5010 8.3762 40° Northeast  Level Estimated
Fri 02:17:00 AM 52.5642 8.4633 40° Northeast  Level Estimated
Fri 02:18:00 AM 52.6272 8.5507 40° Northeast  Level Estimated
Fri 02:19:00 AM 52.6903 8.6383 40° Northeast  Level Estimated
Fri 02:20:00 AM 52.7532 8.7262 40° Northeast  Level Estimated
Fri 02:21:00 AM 52.8161 8.8144 40° Northeast  Level Estimated
Fri 02:22:00 AM 52.8789 8.9028 40° Northeast  Level Estimated
Fri 02:23:00 AM 52.9417 8.9915 40° Northeast  Level Estimated
Fri 02:24:00 AM 53.0245 9.1090 40° Northeast  Level Estimated
Fri 02:25:00 AM 53.1072 9.2270 41° Northeast  Level Estimated
Fri 02:26:00 AM 53.1898 9.3455 41° Northeast  Level Estimated
Fri 02:27:00 AM 53.2723 9.4644 41° Northeast  Level Estimated
Fri 02:28:00 AM 53.3546 9.5838 41° Northeast  Level Estimated
Fri 02:29:00 AM 53.4369 9.7037 41° Northeast  Level Estimated
Fri 02:30:00 AM 53.5190 9.8240 41° Northeast  Level Estimated
Fri 02:31:00 AM 53.6010 9.9448 41° Northeast  Level Estimated
Fri 02:32:00 AM 53.6304 9.9882 41° Northeast  Level Estimated
Fri 02:33:00 AM 53.6304 9.9882 North  Level Estimated
Fri 02:34:00 AM 53.6304 9.9882 North  Level Estimated
Fri 02:35:00 AM 53.6304 9.9882 North  Level Estimated
Fri 02:36:00 AM 53.6304 9.9882 North  Level Estimated
Fri 02:37:00 AM 53.6304 9.9882 North  Level Estimated
Fri 02:38:00 AM 53.6304 9.9882 North  Level Estimated
Fri 02:39:00 AM 53.6304 9.9882 North  Level Estimated
Fri 02:39:25 AM 51.2752 6.7001 293° West 185 213 4,000  Level FlightAware ADS-B
Fri 02:39:38 AM 51.2871 6.6863 335° Northwest 213 245 4,500 3,652 Climbing FlightAware ADS-B
Fri 02:39:48 AM 51.2977 6.6824 356° North 222 255 5,400 4,500 Climbing FlightAware ADS-B
Fri 02:39:58 AM 51.3086 6.6845 12° North 235 270 6,000 3,200 Climbing FlightAware ADS-B
Fri 02:40:18 AM 51.3327 6.6937 13° North 250 288 7,000 2,769 Climbing FlightAware ADS-B
Fri 02:40:37 AM 51.3553 6.6975 North 258 297 7,800 2,600 Climbing FlightAware ADS-B
Fri 02:40:48 AM 51.3688 6.6972 358° North 283 326 8,300 2,903 Climbing FlightAware ADS-B
Fri 02:41:08 AM 51.3963 6.6965 North 313 360 9,300 2,625 Climbing FlightAware ADS-B
Fri 02:42:08 AM 51.4830 6.7804 31° Northeast 355 409 11,800 2,917 Climbing FlightAware ADS-B
Fri 02:42:57 AM 51.5504 6.8584 35° Northeast 424 488 14,600 3,293 Climbing FlightAware ADS-B
Fri 02:43:30 AM 51.6145 6.9304 36° Northeast 438 504 16,300 3,033 Climbing FlightAware ADS-B
Fri 02:44:28 AM 51.5504 6.8584 36° Northeast 456 525 19,200 2,871 Climbing FlightAware ADS-B
Fri 02:46:59 AM 51.9760 7.3306 34° Northeast 467 537 26,300 2,702 Climbing FlightAware ADS-B
Fri 02:47:00 AM 51.9264 7.3417 42° Northeast  Level Estimated
Fri 02:47:39 AM 52.0534 7.4147 34° Northeast 477 549 27,800  Level FlightAware ADS-B
Fri 02:48:48 AM 52.1806 7.5534 35° Northeast 487 560 29,900 1,374 Climbing FlightAware ADS-B
Fri 02:49:50 AM 52.2935 7.6784 34° Northeast 488 562 30,800 1,513 Climbing FlightAware ADS-B
Fri 02:50:47 AM 52.4065 7.8030 34° Northeast 492 566 32,900 985 Climbing FlightAware ADS-B
Fri 02:52:04 AM 52.5426 7.9544 34° Northeast 489 563 33,000 52 Climbing FlightAware ADS-B
Fri 02:52:43 AM 52.6178 8.0387 34° Northeast 488 562 33,000  Level FlightAware ADS-B
Fri 02:53:13 AM 52.6726 8.1001 34° Northeast 490 564 33,000 -800 Level FlightAware ADS-B
Fri 02:53:43 AM 52.7270 8.1610 34° Northeast 486 559 32,200 -1,900 Descending FlightAware ADS-B
Fri 02:54:13 AM 52.7855 8.2279 34° Northeast 483 556 31,100 -2,114 Descending FlightAware ADS-B
Fri 02:55:11 AM 52.8865 8.3427 34° Northeast 492 566 29,100 -1,947 Descending FlightAware ADS-B
Fri 02:56:44 AM 53.0284 8.6133 56° Northeast 473 544 26,200 -1,810 Descending FlightAware ADS-B
Fri 02:57:17 AM 53.0669 8.7092 56° Northeast 467 537 25,300 -1,938 Descending FlightAware ADS-B
Fri 02:58:20 AM 53.1398 8.8917 56° Northeast 454 522 23,100 -2,244 Descending FlightAware ADS-B
Fri 02:59:20 AM 53.2092 9.0665 56° Northeast 441 507 20,700 -2,521 Descending FlightAware ADS-B
Fri 03:00:19 AM 53.2753 9.2345 56° Northeast 431 496 18,100 -2,622 Descending FlightAware ADS-B
Fri 03:01:19 AM 53.3398 9.4000 56° Northeast 422 486 15,500 -2,400 Descending FlightAware ADS-B
Fri 03:01:49 AM 53.3714 9.4814 56° Northeast 410 472 14,500 -1,900 Descending FlightAware ADS-B
Fri 03:02:19 AM 53.4018 9.5600 56° Northeast 396 456 13,600 -1,800 Descending FlightAware ADS-B
Fri 03:02:49 AM 53.4308 9.6350 56° Northeast 386 444 12,700 -1,800 Descending FlightAware ADS-B
Fri 03:03:19 AM 53.4607 9.7119 57° Northeast 378 435 11,800 -1,451 Descending FlightAware ADS-B
Fri 03:04:20 AM 53.5166 9.8576 57° Northeast 353 406 10,500 -1,416 Descending FlightAware ADS-B
Fri 03:04:48 AM 53.5400 9.9201 57° Northeast 348 400 9,700 -1,655 Descending FlightAware ADS-B
Fri 03:05:18 AM 53.5664 9.9892 57° Northeast 344 396 8,900 -1,548 Descending FlightAware ADS-B
Fri 03:05:50 AM 53.5939 10.0607 57° Northeast 333 383 8,100 -1,232 Descending FlightAware ADS-B
Fri 03:07:49 AM 53.6838 10.2998 57° Northeast 297 342 5,800 -1,200 Descending FlightAware ADS-B
Fri 03:08:20 AM 53.7080 10.3608 46° Northeast 284 327 5,100 -1,258 Descending FlightAware ADS-B
Fri 03:08:51 AM 53.7420 10.3826 357° North 252 290 4,500 -644 Descending FlightAware ADS-B
Fri 03:10:49 AM 53.7477 10.2257 229° Southwest 187 215 3,500 -480 Descending FlightAware ADS-B
Fri 03:11:21 AM 53.7314 10.1920 230° Southwest 167 192 3,300 -677 Descending FlightAware ADS-B
Fri 03:11:51 AM 53.7166 10.1620 230° Southwest 165 190 2,800 -828 Descending FlightAware ADS-B
Fri 03:12:19 AM 53.7029 10.1340 229° Southwest 149 171 2,500 -800 Descending FlightAware ADS-B
Fri 03:12:51 AM 53.6897 10.1072 230° Southwest 126 145 2,000 -733 Descending FlightAware ADS-B
Fri 03:13:49 AM 53.6691 10.0660 229° Southwest 117 135 1,400 -667 Descending FlightAware ADS-B
Fri 03:14:21 AM 53.6577 10.0434 227° Southwest 116 133 1,000 -600 Descending FlightAware ADS-B
Fri 03:14:49 AM 53.6480 10.0238 229° Southwest 113 130 800 -600 Descending FlightAware ADS-B
Fri 03:15:31 AM 53.6332 9.9939 230° Southwest 115 132 300 -714 Descending FlightAware ADS-B
Fri 03:18:00 AM 53.6304 9.9882 230° Southwest  Level Estimated

Login

Don't have an account? Register now (free) for customized features, flight alerts, and more!